sensor_id;sensor_type;location;lat;lon;timestamp;P1;durP1;ratioP1;P2;durP2;ratioP2
2177;SDS011;1095;50.992;6.798;2022-08-19T00:01:15;18.33;;;15.95;;
2177;SDS011;1095;50.992;6.798;2022-08-19T00:03:42;18.40;;;16.33;;
2177;SDS011;1095;50.992;6.798;2022-08-19T00:06:08;18.85;;;16.50;;
2177;SDS011;1095;50.992;6.798;2022-08-19T00:08:37;22.17;;;16.90;;
2177;SDS011;1095;50.992;6.798;2022-08-19T00:11:03;18.67;;;16.48;;
2177;SDS011;1095;50.992;6.798;2022-08-19T00:13:31;18.15;;;16.25;;
2177;SDS011;1095;50.992;6.798;2022-08-19T00:15:57;19.40;;;17.15;;
2177;SDS011;1095;50.992;6.798;2022-08-19T00:18:25;19.48;;;17.25;;
2177;SDS011;1095;50.992;6.798;2022-08-19T00:20:52;23.13;;;18.42;;
2177;SDS011;1095;50.992;6.798;2022-08-19T00:23:19;20.27;;;18.25;;
2177;SDS011;1095;50.992;6.798;2022-08-19T00:25:47;22.15;;;18.85;;
2177;SDS011;1095;50.992;6.798;2022-08-19T00:28:14;25.08;;;19.73;;
2177;SDS011;1095;50.992;6.798;2022-08-19T00:30:40;22.17;;;18.67;;
2177;SDS011;1095;50.992;6.798;2022-08-19T00:33:07;21.55;;;19.42;;
2177;SDS011;1095;50.992;6.798;2022-08-19T00:35:34;22.55;;;20.10;;
2177;SDS011;1095;50.992;6.798;2022-08-19T00:38:03;22.77;;;19.98;;
2177;SDS011;1095;50.992;6.798;2022-08-19T00:40:31;22.67;;;20.30;;
2177;SDS011;1095;50.992;6.798;2022-08-19T00:43:00;24.40;;;19.88;;
2177;SDS011;1095;50.992;6.798;2022-08-19T00:45:28;21.73;;;19.33;;
2177;SDS011;1095;50.992;6.798;2022-08-19T00:47:57;22.75;;;20.08;;
2177;SDS011;1095;50.992;6.798;2022-08-19T00:50:24;23.77;;;20.58;;
2177;SDS011;1095;50.992;6.798;2022-08-19T00:52:51;22.05;;;19.70;;
2177;SDS011;1095;50.992;6.798;2022-08-19T00:55:19;23.55;;;19.40;;
2177;SDS011;1095;50.992;6.798;2022-08-19T00:57:48;25.40;;;20.15;;
2177;SDS011;1095;50.992;6.798;2022-08-19T01:00:21;24.63;;;19.42;;
2177;SDS011;1095;50.992;6.798;2022-08-19T01:02:49;23.23;;;19.77;;
2177;SDS011;1095;50.992;6.798;2022-08-19T01:05:17;27.10;;;19.98;;
2177;SDS011;1095;50.992;6.798;2022-08-19T01:07:46;28.52;;;19.83;;
2177;SDS011;1095;50.992;6.798;2022-08-19T01:10:14;23.95;;;20.60;;
2177;SDS011;1095;50.992;6.798;2022-08-19T01:12:44;21.95;;;19.48;;
2177;SDS011;1095;50.992;6.798;2022-08-19T01:15:12;22.63;;;18.75;;
2177;SDS011;1095;50.992;6.798;2022-08-19T01:17:43;24.90;;;19.48;;
2177;SDS011;1095;50.992;6.798;2022-08-19T01:20:12;22.83;;;19.10;;
2177;SDS011;1095;50.992;6.798;2022-08-19T01:22:43;26.48;;;19.95;;
2177;SDS011;1095;50.992;6.798;2022-08-19T01:25:12;27.08;;;21.45;;
2177;SDS011;1095;50.992;6.798;2022-08-19T01:27:39;23.85;;;21.30;;
2177;SDS011;1095;50.992;6.798;2022-08-19T01:30:09;24.75;;;21.67;;
2177;SDS011;1095;50.992;6.798;2022-08-19T01:32:37;27.23;;;22.42;;
2177;SDS011;1095;50.992;6.798;2022-08-19T01:35:04;26.23;;;23.52;;
2177;SDS011;1095;50.992;6.798;2022-08-19T01:37:42;28.45;;;22.67;;
2177;SDS011;1095;50.992;6.798;2022-08-19T01:40:10;29.90;;;26.70;;
2177;SDS011;1095;50.992;6.798;2022-08-19T01:42:37;28.92;;;25.83;;
2177;SDS011;1095;50.992;6.798;2022-08-19T01:45:05;32.22;;;28.73;;
2177;SDS011;1095;50.992;6.798;2022-08-19T01:47:33;31.67;;;28.13;;
2177;SDS011;1095;50.992;6.798;2022-08-19T01:50:00;33.30;;;29.23;;
2177;SDS011;1095;50.992;6.798;2022-08-19T01:52:27;34.65;;;29.05;;
2177;SDS011;1095;50.992;6.798;2022-08-19T01:54:55;33.67;;;29.70;;
2177;SDS011;1095;50.992;6.798;2022-08-19T01:57:21;32.60;;;29.10;;
2177;SDS011;1095;50.992;6.798;2022-08-19T01:59:48;36.67;;;30.63;;
2177;SDS011;1095;50.992;6.798;2022-08-19T02:02:15;31.02;;;27.73;;
2177;SDS011;1095;50.992;6.798;2022-08-19T02:04:41;33.88;;;30.27;;
2177;SDS011;1095;50.992;6.798;2022-08-19T02:07:08;36.00;;;29.80;;
2177;SDS011;1095;50.992;6.798;2022-08-19T02:09:35;34.22;;;29.70;;
2177;SDS011;1095;50.992;6.798;2022-08-19T02:12:03;35.40;;;29.95;;
2177;SDS011;1095;50.992;6.798;2022-08-19T02:14:30;38.05;;;32.13;;
2177;SDS011;1095;50.992;6.798;2022-08-19T02:16:59;34.97;;;31.17;;
2177;SDS011;1095;50.992;6.798;2022-08-19T02:19:26;38.38;;;32.10;;
2177;SDS011;1095;50.992;6.798;2022-08-19T02:21:53;36.85;;;32.38;;
2177;SDS011;1095;50.992;6.798;2022-08-19T02:24:19;36.80;;;32.67;;
2177;SDS011;1095;50.992;6.798;2022-08-19T02:26:46;41.25;;;32.67;;
2177;SDS011;1095;50.992;6.798;2022-08-19T02:29:14;38.38;;;33.25;;
2177;SDS011;1095;50.992;6.798;2022-08-19T02:31:40;36.35;;;32.33;;
2177;SDS011;1095;50.992;6.798;2022-08-19T02:34:07;39.75;;;33.42;;
2177;SDS011;1095;50.992;6.798;2022-08-19T02:36:34;42.33;;;33.58;;
2177;SDS011;1095;50.992;6.798;2022-08-19T02:39:01;38.45;;;34.40;;
2177;SDS011;1095;50.992;6.798;2022-08-19T02:41:29;38.95;;;33.25;;
2177;SDS011;1095;50.992;6.798;2022-08-19T02:43:58;38.88;;;33.78;;
2177;SDS011;1095;50.992;6.798;2022-08-19T02:46:27;38.90;;;34.03;;
2177;SDS011;1095;50.992;6.798;2022-08-19T02:48:57;36.80;;;32.83;;
2177;SDS011;1095;50.992;6.798;2022-08-19T02:51:28;42.35;;;34.67;;
2177;SDS011;1095;50.992;6.798;2022-08-19T02:53:56;41.22;;;34.53;;
2177;SDS011;1095;50.992;6.798;2022-08-19T02:56:23;42.28;;;33.80;;
2177;SDS011;1095;50.992;6.798;2022-08-19T02:58:52;41.65;;;34.20;;
2177;SDS011;1095;50.992;6.798;2022-08-19T03:01:20;45.33;;;36.45;;
2177;SDS011;1095;50.992;6.798;2022-08-19T03:03:50;45.15;;;37.00;;
2177;SDS011;1095;50.992;6.798;2022-08-19T03:06:17;44.75;;;36.47;;
2177;SDS011;1095;50.992;6.798;2022-08-19T03:08:44;44.50;;;35.85;;
2177;SDS011;1095;50.992;6.798;2022-08-19T03:11:12;42.65;;;35.22;;
2177;SDS011;1095;50.992;6.798;2022-08-19T03:13:40;49.55;;;36.92;;
2177;SDS011;1095;50.992;6.798;2022-08-19T03:16:08;44.85;;;37.05;;
2177;SDS011;1095;50.992;6.798;2022-08-19T03:18:35;47.97;;;38.33;;
2177;SDS011;1095;50.992;6.798;2022-08-19T03:21:03;46.92;;;38.72;;
2177;SDS011;1095;50.992;6.798;2022-08-19T03:23:30;44.63;;;39.80;;
2177;SDS011;1095;50.992;6.798;2022-08-19T03:25:57;47.53;;;37.67;;
2177;SDS011;1095;50.992;6.798;2022-08-19T03:28:24;44.03;;;39.20;;
2177;SDS011;1095;50.992;6.798;2022-08-19T03:30:55;49.95;;;39.55;;
2177;SDS011;1095;50.992;6.798;2022-08-19T03:33:23;51.67;;;40.80;;
2177;SDS011;1095;50.992;6.798;2022-08-19T03:36:05;45.25;;;39.60;;
2177;SDS011;1095;50.992;6.798;2022-08-19T03:38:34;50.28;;;40.63;;
2177;SDS011;1095;50.992;6.798;2022-08-19T03:41:02;52.10;;;40.88;;
2177;SDS011;1095;50.992;6.798;2022-08-19T03:43:31;55.70;;;41.88;;
2177;SDS011;1095;50.992;6.798;2022-08-19T03:46:02;50.78;;;41.25;;
2177;SDS011;1095;50.992;6.798;2022-08-19T03:48:30;55.35;;;46.85;;
2177;SDS011;1095;50.992;6.798;2022-08-19T03:50:57;53.45;;;46.40;;
2177;SDS011;1095;50.992;6.798;2022-08-19T03:53:26;53.53;;;47.28;;
2177;SDS011;1095;50.992;6.798;2022-08-19T03:55:54;56.42;;;46.97;;
2177;SDS011;1095;50.992;6.798;2022-08-19T03:58:23;53.90;;;46.67;;
2177;SDS011;1095;50.992;6.798;2022-08-19T04:00:49;62.85;;;51.03;;
2177;SDS011;1095;50.992;6.798;2022-08-19T04:03:16;58.50;;;49.10;;
2177;SDS011;1095;50.992;6.798;2022-08-19T04:05:44;62.25;;;50.25;;
2177;SDS011;1095;50.992;6.798;2022-08-19T04:08:11;63.70;;;50.85;;
2177;SDS011;1095;50.992;6.798;2022-08-19T04:10:45;61.00;;;51.40;;
2177;SDS011;1095;50.992;6.798;2022-08-19T04:13:12;54.60;;;47.70;;
2177;SDS011;1095;50.992;6.798;2022-08-19T04:15:39;60.47;;;50.03;;
2177;SDS011;1095;50.992;6.798;2022-08-19T04:18:07;60.40;;;50.00;;
2177;SDS011;1095;50.992;6.798;2022-08-19T04:20:38;59.10;;;48.30;;
2177;SDS011;1095;50.992;6.798;2022-08-19T04:23:06;60.88;;;49.08;;
2177;SDS011;1095;50.992;6.798;2022-08-19T04:25:37;57.42;;;48.22;;
2177;SDS011;1095;50.992;6.798;2022-08-19T04:28:06;58.33;;;48.40;;
2177;SDS011;1095;50.992;6.798;2022-08-19T04:30:38;57.90;;;48.50;;
2177;SDS011;1095;50.992;6.798;2022-08-19T04:33:06;57.57;;;47.73;;
2177;SDS011;1095;50.992;6.798;2022-08-19T04:35:37;59.78;;;49.25;;
2177;SDS011;1095;50.992;6.798;2022-08-19T04:38:08;57.28;;;47.38;;
2177;SDS011;1095;50.992;6.798;2022-08-19T04:40:39;55.10;;;48.67;;
2177;SDS011;1095;50.992;6.798;2022-08-19T04:43:26;57.00;;;47.50;;
2177;SDS011;1095;50.992;6.798;2022-08-19T04:45:53;63.45;;;49.95;;
2177;SDS011;1095;50.992;6.798;2022-08-19T04:48:20;57.70;;;47.60;;
2177;SDS011;1095;50.992;6.798;2022-08-19T04:50:51;60.35;;;47.17;;
2177;SDS011;1095;50.992;6.798;2022-08-19T04:53:22;58.00;;;49.25;;
2177;SDS011;1095;50.992;6.798;2022-08-19T04:55:50;57.95;;;47.13;;
2177;SDS011;1095;50.992;6.798;2022-08-19T04:58:16;58.22;;;49.35;;
2177;SDS011;1095;50.992;6.798;2022-08-19T05:00:45;59.72;;;46.92;;
2177;SDS011;1095;50.992;6.798;2022-08-19T05:03:11;59.45;;;48.13;;
2177;SDS011;1095;50.992;6.798;2022-08-19T05:05:42;56.40;;;47.90;;
2177;SDS011;1095;50.992;6.798;2022-08-19T05:08:10;58.60;;;48.00;;
2177;SDS011;1095;50.992;6.798;2022-08-19T05:10:37;53.63;;;46.55;;
2177;SDS011;1095;50.992;6.798;2022-08-19T05:13:05;61.92;;;46.83;;
2177;SDS011;1095;50.992;6.798;2022-08-19T05:15:34;54.05;;;46.30;;
2177;SDS011;1095;50.992;6.798;2022-08-19T05:18:02;54.63;;;46.97;;
2177;SDS011;1095;50.992;6.798;2022-08-19T05:20:46;53.97;;;45.33;;
2177;SDS011;1095;50.992;6.798;2022-08-19T05:23:30;53.65;;;45.25;;
2177;SDS011;1095;50.992;6.798;2022-08-19T05:25:57;53.60;;;45.95;;
2177;SDS011;1095;50.992;6.798;2022-08-19T05:28:24;51.65;;;44.20;;
2177;SDS011;1095;50.992;6.798;2022-08-19T05:30:52;53.33;;;46.08;;
2177;SDS011;1095;50.992;6.798;2022-08-19T05:33:24;51.35;;;44.67;;
2177;SDS011;1095;50.992;6.798;2022-08-19T05:35:50;59.22;;;45.42;;
2177;SDS011;1095;50.992;6.798;2022-08-19T05:38:17;55.70;;;45.47;;
2177;SDS011;1095;50.992;6.798;2022-08-19T05:40:45;49.25;;;43.28;;
2177;SDS011;1095;50.992;6.798;2022-08-19T05:43:12;49.92;;;42.40;;
2177;SDS011;1095;50.992;6.798;2022-08-19T05:45:41;50.22;;;42.15;;
2177;SDS011;1095;50.992;6.798;2022-08-19T05:48:08;49.70;;;41.10;;
2177;SDS011;1095;50.992;6.798;2022-08-19T05:50:37;50.08;;;42.13;;
2177;SDS011;1095;50.992;6.798;2022-08-19T05:53:04;52.42;;;43.17;;
2177;SDS011;1095;50.992;6.798;2022-08-19T05:55:31;50.72;;;42.03;;
2177;SDS011;1095;50.992;6.798;2022-08-19T05:57:58;50.80;;;42.95;;
2177;SDS011;1095;50.992;6.798;2022-08-19T06:00:26;47.30;;;42.20;;
2177;SDS011;1095;50.992;6.798;2022-08-19T06:02:56;48.15;;;41.20;;
2177;SDS011;1095;50.992;6.798;2022-08-19T06:05:24;48.75;;;40.90;;
2177;SDS011;1095;50.992;6.798;2022-08-19T06:07:52;50.20;;;39.28;;
2177;SDS011;1095;50.992;6.798;2022-08-19T06:10:19;48.92;;;40.30;;
2177;SDS011;1095;50.992;6.798;2022-08-19T06:12:46;45.95;;;39.42;;
2177;SDS011;1095;50.992;6.798;2022-08-19T06:15:13;44.00;;;39.05;;
2177;SDS011;1095;50.992;6.798;2022-08-19T06:17:41;44.28;;;39.50;;
2177;SDS011;1095;50.992;6.798;2022-08-19T06:20:10;44.20;;;38.47;;
2177;SDS011;1095;50.992;6.798;2022-08-19T06:22:39;47.58;;;38.10;;
2177;SDS011;1095;50.992;6.798;2022-08-19T06:25:08;41.75;;;37.35;;
2177;SDS011;1095;50.992;6.798;2022-08-19T06:27:35;41.33;;;36.70;;
2177;SDS011;1095;50.992;6.798;2022-08-19T06:30:03;44.47;;;35.47;;
2177;SDS011;1095;50.992;6.798;2022-08-19T06:32:30;40.92;;;35.60;;
2177;SDS011;1095;50.992;6.798;2022-08-19T06:34:57;42.60;;;36.80;;
2177;SDS011;1095;50.992;6.798;2022-08-19T06:37:24;44.13;;;38.10;;
2177;SDS011;1095;50.992;6.798;2022-08-19T06:39:50;50.05;;;40.35;;
2177;SDS011;1095;50.992;6.798;2022-08-19T06:42:18;42.65;;;37.83;;
2177;SDS011;1095;50.992;6.798;2022-08-19T06:44:46;45.05;;;39.35;;
2177;SDS011;1095;50.992;6.798;2022-08-19T06:47:15;46.83;;;40.58;;
2177;SDS011;1095;50.992;6.798;2022-08-19T06:49:44;46.25;;;40.05;;
2177;SDS011;1095;50.992;6.798;2022-08-19T06:52:11;55.25;;;42.40;;
2177;SDS011;1095;50.992;6.798;2022-08-19T06:54:39;54.38;;;42.20;;
2177;SDS011;1095;50.992;6.798;2022-08-19T06:57:08;52.67;;;42.95;;
2177;SDS011;1095;50.992;6.798;2022-08-19T06:59:41;54.80;;;45.28;;
2177;SDS011;1095;50.992;6.798;2022-08-19T07:02:08;57.65;;;45.95;;
2177;SDS011;1095;50.992;6.798;2022-08-19T07:04:34;59.25;;;47.70;;
2177;SDS011;1095;50.992;6.798;2022-08-19T07:07:04;60.22;;;46.42;;
2177;SDS011;1095;50.992;6.798;2022-08-19T07:09:33;60.88;;;47.53;;
2177;SDS011;1095;50.992;6.798;2022-08-19T07:12:02;57.38;;;45.85;;
2177;SDS011;1095;50.992;6.798;2022-08-19T07:14:30;62.30;;;48.25;;
2177;SDS011;1095;50.992;6.798;2022-08-19T07:16:58;58.80;;;47.78;;
2177;SDS011;1095;50.992;6.798;2022-08-19T07:19:25;67.47;;;49.15;;
2177;SDS011;1095;50.992;6.798;2022-08-19T07:21:53;66.60;;;47.83;;
2177;SDS011;1095;50.992;6.798;2022-08-19T07:24:21;63.80;;;49.35;;
2177;SDS011;1095;50.992;6.798;2022-08-19T07:26:50;68.18;;;51.33;;
2177;SDS011;1095;50.992;6.798;2022-08-19T07:29:18;74.05;;;51.70;;
2177;SDS011;1095;50.992;6.798;2022-08-19T07:31:47;68.63;;;51.35;;
2177;SDS011;1095;50.992;6.798;2022-08-19T07:34:16;68.50;;;50.20;;
2177;SDS011;1095;50.992;6.798;2022-08-19T07:36:44;72.55;;;50.75;;
2177;SDS011;1095;50.992;6.798;2022-08-19T07:39:13;63.25;;;49.70;;
2177;SDS011;1095;50.992;6.798;2022-08-19T07:41:41;68.70;;;49.65;;
2177;SDS011;1095;50.992;6.798;2022-08-19T07:44:08;67.38;;;51.47;;
2177;SDS011;1095;50.992;6.798;2022-08-19T07:46:38;69.60;;;50.80;;
2177;SDS011;1095;50.992;6.798;2022-08-19T07:49:09;63.75;;;50.10;;
2177;SDS011;1095;50.992;6.798;2022-08-19T07:51:43;71.07;;;50.22;;
2177;SDS011;1095;50.992;6.798;2022-08-19T07:54:10;63.75;;;47.13;;
2177;SDS011;1095;50.992;6.798;2022-08-19T07:56:37;62.15;;;48.92;;
2177;SDS011;1095;50.992;6.798;2022-08-19T07:59:04;69.50;;;47.42;;
2177;SDS011;1095;50.992;6.798;2022-08-19T08:01:31;64.03;;;47.97;;
2177;SDS011;1095;50.992;6.798;2022-08-19T08:03:58;62.28;;;44.55;;
2177;SDS011;1095;50.992;6.798;2022-08-19T08:06:43;62.55;;;47.20;;
2177;SDS011;1095;50.992;6.798;2022-08-19T08:09:28;61.03;;;46.95;;
2177;SDS011;1095;50.992;6.798;2022-08-19T08:11:58;60.25;;;46.38;;
2177;SDS011;1095;50.992;6.798;2022-08-19T08:14:28;60.88;;;45.85;;
2177;SDS011;1095;50.992;6.798;2022-08-19T08:16:57;62.33;;;46.00;;
2177;SDS011;1095;50.992;6.798;2022-08-19T08:19:25;64.13;;;45.20;;
2177;SDS011;1095;50.992;6.798;2022-08-19T08:21:55;61.97;;;45.17;;
2177;SDS011;1095;50.992;6.798;2022-08-19T08:24:24;59.80;;;46.92;;
2177;SDS011;1095;50.992;6.798;2022-08-19T08:26:51;59.80;;;45.67;;
2177;SDS011;1095;50.992;6.798;2022-08-19T08:29:18;61.58;;;47.03;;
2177;SDS011;1095;50.992;6.798;2022-08-19T08:31:45;59.20;;;44.83;;
2177;SDS011;1095;50.992;6.798;2022-08-19T08:34:13;70.38;;;49.25;;
2177;SDS011;1095;50.992;6.798;2022-08-19T08:36:43;56.42;;;44.45;;
2177;SDS011;1095;50.992;6.798;2022-08-19T08:39:13;54.08;;;42.05;;
2177;SDS011;1095;50.992;6.798;2022-08-19T08:41:44;55.17;;;43.05;;
2177;SDS011;1095;50.992;6.798;2022-08-19T08:46:44;48.45;;;39.55;;
2177;SDS011;1095;50.992;6.798;2022-08-19T08:49:17;55.83;;;42.13;;
2177;SDS011;1095;50.992;6.798;2022-08-19T08:51:54;49.08;;;38.95;;
2177;SDS011;1095;50.992;6.798;2022-08-19T08:54:28;52.85;;;40.92;;
2177;SDS011;1095;50.992;6.798;2022-08-19T08:56:59;55.47;;;40.55;;
2177;SDS011;1095;50.992;6.798;2022-08-19T08:59:26;53.65;;;40.10;;
2177;SDS011;1095;50.992;6.798;2022-08-19T09:01:57;47.63;;;35.30;;
2177;SDS011;1095;50.992;6.798;2022-08-19T09:04:24;44.05;;;34.22;;
2177;SDS011;1095;50.992;6.798;2022-08-19T09:06:51;42.28;;;33.58;;
2177;SDS011;1095;50.992;6.798;2022-08-19T09:09:30;41.83;;;34.20;;
2177;SDS011;1095;50.992;6.798;2022-08-19T09:12:04;39.28;;;31.92;;
2177;SDS011;1095;50.992;6.798;2022-08-19T09:14:38;40.10;;;31.95;;
2177;SDS011;1095;50.992;6.798;2022-08-19T09:17:13;40.22;;;32.10;;
2177;SDS011;1095;50.992;6.798;2022-08-19T09:19:46;43.53;;;32.20;;
2177;SDS011;1095;50.992;6.798;2022-08-19T09:22:16;42.40;;;30.08;;
2177;SDS011;1095;50.992;6.798;2022-08-19T09:24:47;36.78;;;31.45;;
2177;SDS011;1095;50.992;6.798;2022-08-19T09:27:15;39.55;;;29.92;;
2177;SDS011;1095;50.992;6.798;2022-08-19T09:29:42;33.88;;;28.45;;
2177;SDS011;1095;50.992;6.798;2022-08-19T09:32:08;32.97;;;27.73;;
2177;SDS011;1095;50.992;6.798;2022-08-19T09:34:35;29.80;;;26.08;;
2177;SDS011;1095;50.992;6.798;2022-08-19T09:37:02;29.50;;;24.70;;
2177;SDS011;1095;50.992;6.798;2022-08-19T09:39:30;29.52;;;23.73;;
2177;SDS011;1095;50.992;6.798;2022-08-19T09:41:58;29.20;;;22.08;;
2177;SDS011;1095;50.992;6.798;2022-08-19T09:44:25;29.40;;;23.40;;
2177;SDS011;1095;50.992;6.798;2022-08-19T09:46:51;27.60;;;21.00;;
2177;SDS011;1095;50.992;6.798;2022-08-19T09:49:18;31.33;;;22.67;;
2177;SDS011;1095;50.992;6.798;2022-08-19T09:51:49;27.20;;;23.33;;
2177;SDS011;1095;50.992;6.798;2022-08-19T09:54:16;25.58;;;21.75;;
2177;SDS011;1095;50.992;6.798;2022-08-19T09:56:43;27.25;;;21.48;;
2177;SDS011;1095;50.992;6.798;2022-08-19T09:59:12;27.60;;;21.05;;
2177;SDS011;1095;50.992;6.798;2022-08-19T10:01:38;23.85;;;20.15;;
2177;SDS011;1095;50.992;6.798;2022-08-19T10:04:05;23.60;;;20.52;;
2177;SDS011;1095;50.992;6.798;2022-08-19T10:06:33;25.27;;;19.48;;
2177;SDS011;1095;50.992;6.798;2022-08-19T10:09:02;25.92;;;19.65;;
2177;SDS011;1095;50.992;6.798;2022-08-19T10:11:31;28.38;;;21.92;;
2177;SDS011;1095;50.992;6.798;2022-08-19T10:13:58;26.85;;;21.25;;
2177;SDS011;1095;50.992;6.798;2022-08-19T10:16:27;29.20;;;22.70;;
2177;SDS011;1095;50.992;6.798;2022-08-19T10:18:54;23.90;;;21.35;;
2177;SDS011;1095;50.992;6.798;2022-08-19T10:21:22;26.48;;;21.17;;
2177;SDS011;1095;50.992;6.798;2022-08-19T10:23:51;29.40;;;22.98;;
2177;SDS011;1095;50.992;6.798;2022-08-19T10:26:22;27.90;;;23.88;;
2177;SDS011;1095;50.992;6.798;2022-08-19T10:28:50;32.17;;;24.52;;
2177;SDS011;1095;50.992;6.798;2022-08-19T10:31:17;33.78;;;25.05;;
2177;SDS011;1095;50.992;6.798;2022-08-19T10:33:47;30.17;;;24.10;;
2177;SDS011;1095;50.992;6.798;2022-08-19T10:36:15;25.92;;;22.33;;
2177;SDS011;1095;50.992;6.798;2022-08-19T10:38:43;30.90;;;22.90;;
2177;SDS011;1095;50.992;6.798;2022-08-19T10:41:12;26.33;;;23.48;;
2177;SDS011;1095;50.992;6.798;2022-08-19T10:43:40;24.73;;;20.77;;
2177;SDS011;1095;50.992;6.798;2022-08-19T10:46:07;23.85;;;21.35;;
2177;SDS011;1095;50.992;6.798;2022-08-19T10:48:39;24.25;;;19.45;;
2177;SDS011;1095;50.992;6.798;2022-08-19T10:51:08;27.20;;;19.73;;
2177;SDS011;1095;50.992;6.798;2022-08-19T10:53:53;24.65;;;21.98;;
2177;SDS011;1095;50.992;6.798;2022-08-19T10:56:20;27.10;;;21.95;;
2177;SDS011;1095;50.992;6.798;2022-08-19T10:59:04;25.15;;;22.10;;
2177;SDS011;1095;50.992;6.798;2022-08-19T11:01:31;20.95;;;18.75;;
2177;SDS011;1095;50.992;6.798;2022-08-19T11:03:59;21.10;;;18.90;;
2177;SDS011;1095;50.992;6.798;2022-08-19T11:06:27;23.63;;;19.98;;
2177;SDS011;1095;50.992;6.798;2022-08-19T11:08:55;21.25;;;17.50;;
2177;SDS011;1095;50.992;6.798;2022-08-19T11:11:22;19.50;;;16.80;;
2177;SDS011;1095;50.992;6.798;2022-08-19T11:13:51;16.67;;;14.70;;
2177;SDS011;1095;50.992;6.798;2022-08-19T11:16:19;18.63;;;16.48;;
2177;SDS011;1095;50.992;6.798;2022-08-19T11:18:49;21.02;;;15.45;;
2177;SDS011;1095;50.992;6.798;2022-08-19T11:21:17;21.05;;;16.13;;
2177;SDS011;1095;50.992;6.798;2022-08-19T11:23:47;19.52;;;15.48;;
2177;SDS011;1095;50.992;6.798;2022-08-19T11:26:16;18.70;;;16.02;;
2177;SDS011;1095;50.992;6.798;2022-08-19T11:28:44;18.42;;;15.77;;
2177;SDS011;1095;50.992;6.798;2022-08-19T11:31:11;17.67;;;15.35;;
2177;SDS011;1095;50.992;6.798;2022-08-19T11:33:39;18.85;;;16.38;;
2177;SDS011;1095;50.992;6.798;2022-08-19T11:36:06;18.50;;;15.93;;
2177;SDS011;1095;50.992;6.798;2022-08-19T11:38:34;16.70;;;15.00;;
2177;SDS011;1095;50.992;6.798;2022-08-19T11:41:03;18.75;;;15.65;;
2177;SDS011;1095;50.992;6.798;2022-08-19T11:43:32;15.73;;;13.98;;
2177;SDS011;1095;50.992;6.798;2022-08-19T11:45:59;17.50;;;15.57;;
2177;SDS011;1095;50.992;6.798;2022-08-19T11:48:31;19.00;;;15.15;;
2177;SDS011;1095;50.992;6.798;2022-08-19T11:50:58;19.10;;;13.75;;
2177;SDS011;1095;50.992;6.798;2022-08-19T11:53:24;16.65;;;13.90;;
2177;SDS011;1095;50.992;6.798;2022-08-19T11:55:52;18.38;;;12.60;;
2177;SDS011;1095;50.992;6.798;2022-08-19T11:58:22;15.45;;;12.35;;
2177;SDS011;1095;50.992;6.798;2022-08-19T12:00:49;17.45;;;13.27;;
2177;SDS011;1095;50.992;6.798;2022-08-19T12:03:17;18.45;;;14.57;;
2177;SDS011;1095;50.992;6.798;2022-08-19T12:05:44;23.50;;;14.48;;
2177;SDS011;1095;50.992;6.798;2022-08-19T12:08:11;16.98;;;13.90;;
2177;SDS011;1095;50.992;6.798;2022-08-19T12:10:39;17.85;;;13.35;;
2177;SDS011;1095;50.992;6.798;2022-08-19T12:13:07;19.02;;;14.77;;
2177;SDS011;1095;50.992;6.798;2022-08-19T12:15:36;16.25;;;13.57;;
2177;SDS011;1095;50.992;6.798;2022-08-19T12:18:05;19.20;;;14.88;;
2177;SDS011;1095;50.992;6.798;2022-08-19T12:20:34;17.50;;;13.68;;
2177;SDS011;1095;50.992;6.798;2022-08-19T12:23:01;15.25;;;12.15;;
2177;SDS011;1095;50.992;6.798;2022-08-19T12:25:28;18.10;;;13.57;;
2177;SDS011;1095;50.992;6.798;2022-08-19T12:27:55;18.50;;;14.00;;
2177;SDS011;1095;50.992;6.798;2022-08-19T12:30:22;17.65;;;12.70;;
2177;SDS011;1095;50.992;6.798;2022-08-19T12:32:51;20.40;;;15.38;;
2177;SDS011;1095;50.992;6.798;2022-08-19T12:35:17;16.10;;;13.60;;
2177;SDS011;1095;50.992;6.798;2022-08-19T12:37:46;15.13;;;13.40;;
2177;SDS011;1095;50.992;6.798;2022-08-19T12:40:15;17.60;;;13.57;;
2177;SDS011;1095;50.992;6.798;2022-08-19T12:42:42;18.02;;;13.93;;
2177;SDS011;1095;50.992;6.798;2022-08-19T12:45:09;14.82;;;11.98;;
2177;SDS011;1095;50.992;6.798;2022-08-19T12:47:37;16.52;;;11.93;;
2177;SDS011;1095;50.992;6.798;2022-08-19T12:50:06;13.73;;;10.68;;
2177;SDS011;1095;50.992;6.798;2022-08-19T12:52:34;15.65;;;12.77;;
2177;SDS011;1095;50.992;6.798;2022-08-19T12:55:04;15.30;;;11.80;;
2177;SDS011;1095;50.992;6.798;2022-08-19T12:57:32;14.55;;;11.00;;
2177;SDS011;1095;50.992;6.798;2022-08-19T13:00:01;12.95;;;10.70;;
2177;SDS011;1095;50.992;6.798;2022-08-19T13:02:32;14.18;;;10.45;;
2177;SDS011;1095;50.992;6.798;2022-08-19T13:04:59;13.30;;;10.07;;
2177;SDS011;1095;50.992;6.798;2022-08-19T13:07:28;18.33;;;11.82;;
2177;SDS011;1095;50.992;6.798;2022-08-19T13:09:55;13.90;;;11.45;;
2177;SDS011;1095;50.992;6.798;2022-08-19T13:12:22;16.50;;;10.68;;
2177;SDS011;1095;50.992;6.798;2022-08-19T13:14:51;13.18;;;10.02;;
2177;SDS011;1095;50.992;6.798;2022-08-19T13:17:18;13.73;;;10.07;;
2177;SDS011;1095;50.992;6.798;2022-08-19T13:19:45;16.90;;;9.63;;
2177;SDS011;1095;50.992;6.798;2022-08-19T13:22:11;15.02;;;10.00;;
2177;SDS011;1095;50.992;6.798;2022-08-19T13:24:40;12.90;;;10.43;;
2177;SDS011;1095;50.992;6.798;2022-08-19T13:27:06;15.00;;;10.98;;
2177;SDS011;1095;50.992;6.798;2022-08-19T13:29:33;12.93;;;10.43;;
2177;SDS011;1095;50.992;6.798;2022-08-19T13:32:17;16.05;;;10.27;;
2177;SDS011;1095;50.992;6.798;2022-08-19T13:35:01;14.93;;;10.60;;
2177;SDS011;1095;50.992;6.798;2022-08-19T13:37:28;13.98;;;10.48;;
2177;SDS011;1095;50.992;6.798;2022-08-19T13:40:09;16.27;;;11.80;;
2177;SDS011;1095;50.992;6.798;2022-08-19T13:42:39;14.55;;;11.45;;
2177;SDS011;1095;50.992;6.798;2022-08-19T13:45:07;12.85;;;9.48;;
2177;SDS011;1095;50.992;6.798;2022-08-19T13:47:34;13.48;;;9.60;;
2177;SDS011;1095;50.992;6.798;2022-08-19T13:50:08;13.82;;;9.50;;
2177;SDS011;1095;50.992;6.798;2022-08-19T13:52:35;13.77;;;10.20;;
2177;SDS011;1095;50.992;6.798;2022-08-19T13:55:02;12.95;;;9.35;;
2177;SDS011;1095;50.992;6.798;2022-08-19T13:57:30;13.90;;;9.60;;
2177;SDS011;1095;50.992;6.798;2022-08-19T13:59:57;13.07;;;9.73;;
2177;SDS011;1095;50.992;6.798;2022-08-19T14:02:24;13.15;;;9.70;;
2177;SDS011;1095;50.992;6.798;2022-08-19T14:04:52;12.25;;;8.93;;
2177;SDS011;1095;50.992;6.798;2022-08-19T14:07:18;12.98;;;8.52;;
2177;SDS011;1095;50.992;6.798;2022-08-19T14:09:48;9.48;;;7.68;;
2177;SDS011;1095;50.992;6.798;2022-08-19T14:12:17;9.07;;;7.65;;
2177;SDS011;1095;50.992;6.798;2022-08-19T14:14:46;9.60;;;7.82;;
2177;SDS011;1095;50.992;6.798;2022-08-19T14:17:13;9.73;;;8.05;;
2177;SDS011;1095;50.992;6.798;2022-08-19T14:19:40;9.70;;;7.82;;
2177;SDS011;1095;50.992;6.798;2022-08-19T14:22:06;11.32;;;7.63;;
2177;SDS011;1095;50.992;6.798;2022-08-19T14:24:33;11.60;;;8.10;;
2177;SDS011;1095;50.992;6.798;2022-08-19T14:27:00;12.88;;;8.48;;
2177;SDS011;1095;50.992;6.798;2022-08-19T14:29:28;11.43;;;7.63;;
2177;SDS011;1095;50.992;6.798;2022-08-19T14:31:56;10.60;;;6.50;;
2177;SDS011;1095;50.992;6.798;2022-08-19T14:34:24;11.02;;;6.57;;
2177;SDS011;1095;50.992;6.798;2022-08-19T14:36:51;10.10;;;6.13;;
2177;SDS011;1095;50.992;6.798;2022-08-19T14:39:18;7.32;;;5.82;;
2177;SDS011;1095;50.992;6.798;2022-08-19T14:41:45;12.57;;;6.43;;
2177;SDS011;1095;50.992;6.798;2022-08-19T14:44:11;12.25;;;6.35;;
2177;SDS011;1095;50.992;6.798;2022-08-19T14:46:38;11.95;;;6.82;;
2177;SDS011;1095;50.992;6.798;2022-08-19T14:49:06;16.33;;;7.07;;
2177;SDS011;1095;50.992;6.798;2022-08-19T14:51:33;8.75;;;6.32;;
2177;SDS011;1095;50.992;6.798;2022-08-19T14:54:00;10.40;;;6.63;;
2177;SDS011;1095;50.992;6.798;2022-08-19T14:56:27;6.95;;;6.15;;
2177;SDS011;1095;50.992;6.798;2022-08-19T14:58:56;13.27;;;6.22;;
2177;SDS011;1095;50.992;6.798;2022-08-19T15:01:26;6.55;;;5.50;;